Flight Track Log - Related Links

Times and Time Zones

All times are in EDT time to prevent confusion due to time zone crossing. See the UAL4407 flight status page for this flight to view local times or setup timezone preferences in your user account.

Time Position Orientation Groundspeed Altitude Reporting Facility
EDT Latitude Longitude Course Direction KTS MPH feet Rate Location/Type
Thu 06:24:21 AM 42.9833 -71.4000 276° West 197 227 2,700  Level KA90
Thu 06:25:15 AM 43.0333 -71.4333 334° Northwest 225 259 4,900 2,104 Climbing KA90
Thu 06:25:38 AM 43.0403 -71.4572 292° West 237 273 5,400 2,169 Climbing Boston Center
Thu 06:26:00 AM 42.9584 -71.7168 280° West  Level FlightAware Approximate
Thu 06:26:38 AM 43.0783 -71.5219 309° West 258 297 7,900  Level Boston Center
Thu 06:27:00 AM 42.9683 -71.8129 280° West  Level FlightAware Approximate
Thu 06:27:36 AM 43.0872 -71.6269 277° West 241 277 10,300  Level Boston Center
Thu 06:28:00 AM 42.9803 -71.9088 280° West  Level FlightAware Approximate
Thu 06:28:37 AM 43.0922 -71.7236 274° West 274 315 10,900  Level Boston Center
Thu 06:29:00 AM 43.0014 -72.0007 276° West  Level FlightAware Approximate
Thu 06:29:37 AM 43.1014 -71.8600 275° West 317 365 12,700  Level Boston Center
Thu 06:30:36 AM 43.1081 -71.9681 275° West 322 371 14,200 1,537 Climbing Boston Center
Thu 06:31:38 AM 43.1169 -72.1044 275° West 328 377 15,800 1,415 Climbing Boston Center
Thu 06:32:39 AM 43.1233 -72.2153 275° West 328 377 17,100 1,200 Climbing Boston Center
Thu 06:33:38 AM 43.1319 -72.3547 275° West 328 377 18,200 814 Climbing Boston Center
Thu 06:34:37 AM 43.1403 -72.4828 275° West 333 383 18,700 706 Climbing Boston Center
Thu 06:35:37 AM 43.1483 -72.6136 275° West 340 391 19,600 650 Climbing Boston Center
Thu 06:36:37 AM 43.1586 -72.7561 276° West 361 415 20,000 198 Climbing Boston Center
Thu 06:37:38 AM 43.1706 -72.9014 276° West 376 433 20,000  Level Boston Center
Thu 06:38:37 AM 43.1803 -73.0436 275° West 387 445 20,000  Level Boston Center
Thu 06:39:37 AM 43.1919 -73.1892 276° West 387 445 20,000 -200 Level Boston Center
Thu 06:40:37 AM 43.1722 -73.3283 259° West 376 433 19,600 -689 Descending Boston Center
Thu 06:41:39 AM 43.0967 -73.4097 218° Southwest 348 400 18,600 -857 Descending Boston Center
Thu 06:42:36 AM 43.0122 -73.5047 219° Southwest 360 414 17,900 -800 Descending Boston Center
Thu 06:43:39 AM 42.9406 -73.5858 220° Southwest 366 421 17,000 -878 Descending Boston Center
Thu 06:44:39 AM 42.8564 -73.6806 220° Southwest 366 421 16,100 -513 Descending Boston Center
Thu 06:45:36 AM 42.7908 -73.7614 222° Southwest 366 421 16,000 -51 Descending Boston Center
Thu 06:46:37 AM 42.7003 -73.8272 208° Southwest 361 415 16,000  Level Boston Center
Thu 06:47:39 AM 42.5914 -73.8756 198° South 367 422 16,000  Level Boston Center
Thu 06:48:37 AM 42.5033 -73.9131 197° South 380 437 16,000  Level Boston Center
Thu 06:49:38 AM 42.3922 -73.9608 198° South 380 437 16,000  Level Boston Center
Thu 06:50:38 AM 42.2917 -74.0061 198° South 380 437 16,000  Level Boston Center
Thu 06:51:39 AM 42.1953 -74.0486 198° South 380 437 16,000 -50 Level Boston Center
Thu 06:52:38 AM 42.0986 -74.0936 199° South 380 437 15,900  Descending Boston Center
Thu 06:53:37 AM 42.0211 -74.1281 198° South 326 375 16,000 101 Climbing Boston Center
Thu 06:54:37 AM 41.9578 -74.1711 207° Southwest 297 342 16,100 -149 Climbing Boston Center
Thu 06:55:38 AM 41.9000 -74.2642 230° Southwest 284 327 15,700 -857 Descending Boston Center
Thu 06:56:36 AM 41.8531 -74.3353 228° Southwest 296 341 14,400 -1,462 Descending Boston Center
Thu 06:57:37 AM 41.7814 -74.3889 209° Southwest 274 315 12,800 -1,700 Descending Boston Center
Thu 06:58:36 AM 41.7042 -74.3894 180° South 279 321 11,000 -1,900 Descending Boston Center
Thu 06:59:37 AM 41.6125 -74.3892 180° South 299 344 9,000 -1,475 Descending Boston Center
Thu 07:00:38 AM 41.5458 -74.3900 181° South 293 337 8,000 -934 Descending Boston Center
Thu 07:01:39 AM 41.4644 -74.3903 180° South 271 312 7,100 -326 Descending Boston Center
Thu 07:03:42 AM 41.3167 -74.4333 192° South 259 298 7,000 -32 Descending New York TRACON
Thu 07:04:48 AM 41.2500 -74.4667 201° Southwest 254 292 7,000  Level New York TRACON
Thu 07:05:48 AM 41.1667 -74.5000 197° South 255 293 7,000  Level New York TRACON
Thu 07:06:48 AM 41.1000 -74.5167 191° South 257 296 7,000 -400 Level New York TRACON
Thu 07:07:48 AM 41.0333 -74.5333 191° South 261 300 6,200 -842 Descending New York TRACON
Thu 07:08:42 AM 40.9667 -74.5333 180° South 252 290 5,400 -632 Descending New York TRACON
Thu 07:09:42 AM 40.9000 -74.5333 180° South 240 276 5,000 -222 Descending New York TRACON
Thu 07:10:30 AM 40.8500 -74.5500 194° South 241 277 5,000  Level New York TRACON
Thu 07:11:30 AM 40.7833 -74.5500 180° South 242 278 5,000  Level New York TRACON
Thu 07:12:30 AM 40.7167 -74.5167 159° South 241 277 5,000  Level New York TRACON
Thu 07:13:30 AM 40.6667 -74.4833 153° Southeast 246 283 5,000  Level New York TRACON
Thu 07:14:30 AM 40.6000 -74.4333 150° Southeast 252 290 5,000 -421 Level New York TRACON
Thu 07:15:24 AM 40.5500 -74.4000 153° Southeast 248 285 4,200 -1,000 Descending New York TRACON
Thu 07:16:24 AM 40.5333 -74.3167 105° East 231 266 3,100 -684 Descending New York TRACON
Thu 07:17:18 AM 40.5500 -74.2500 72° East 234 269 2,900 -789 Descending New York TRACON
Thu 07:18:18 AM 40.6167 -74.2167 21° North 223 257 1,600 -1,100 Descending New York TRACON
Thu 07:19:18 AM 40.6500 -74.1833 37° Northeast 144 166 700 -900 Descending New York TRACON

Login

Don't have an account? Register now (free) for customized features, flight alerts, and more!